sensor_id;sensor_type;location;lat;lon;timestamp;P1;durP1;ratioP1;P2;durP2;ratioP2
12888;SDS011;56848;49.896;11.424;2022-10-26T04:02:10;16.40;;;6.60;;
12888;SDS011;56848;49.896;11.424;2022-10-26T04:04:36;11.33;;;6.07;;
12888;SDS011;56848;49.896;11.424;2022-10-26T04:07:01;9.60;;;5.33;;
12888;SDS011;56848;49.896;11.424;2022-10-26T04:09:27;7.33;;;5.47;;
12888;SDS011;56848;49.896;11.424;2022-10-26T04:11:53;6.67;;;4.50;;
12888;SDS011;56848;49.896;11.424;2022-10-26T04:14:18;11.63;;;5.07;;
12888;SDS011;56848;49.896;11.424;2022-10-26T04:16:44;5.33;;;4.60;;
12888;SDS011;56848;49.896;11.424;2022-10-26T04:19:09;8.30;;;5.10;;
12888;SDS011;56848;49.896;11.424;2022-10-26T04:21:35;9.47;;;5.60;;
12888;SDS011;56848;49.896;11.424;2022-10-26T04:24:00;6.63;;;5.30;;
12888;SDS011;56848;49.896;11.424;2022-10-26T04:26:26;7.67;;;5.27;;
12888;SDS011;56848;49.896;11.424;2022-10-26T04:28:52;7.97;;;5.03;;
12888;SDS011;56848;49.896;11.424;2022-10-26T04:31:18;12.33;;;5.80;;
12888;SDS011;56848;49.896;11.424;2022-10-26T04:33:43;8.03;;;5.77;;
12888;SDS011;56848;49.896;11.424;2022-10-26T04:36:09;9.37;;;5.93;;
12888;SDS011;56848;49.896;11.424;2022-10-26T04:38:35;8.13;;;5.20;;
12888;SDS011;56848;49.896;11.424;2022-10-26T04:41:00;10.93;;;5.80;;
12888;SDS011;56848;49.896;11.424;2022-10-26T04:43:26;10.70;;;5.93;;
12888;SDS011;56848;49.896;11.424;2022-10-26T04:45:55;7.03;;;5.00;;
12888;SDS011;56848;49.896;11.424;2022-10-26T04:48:21;17.13;;;5.20;;
12888;SDS011;56848;49.896;11.424;2022-10-26T04:50:47;13.13;;;4.93;;
12888;SDS011;56848;49.896;11.424;2022-10-26T04:53:13;10.30;;;5.53;;
12888;SDS011;56848;49.896;11.424;2022-10-26T04:55:38;5.60;;;4.43;;
12888;SDS011;56848;49.896;11.424;2022-10-26T04:58:04;7.70;;;5.17;;
12888;SDS011;56848;49.896;11.424;2022-10-26T05:00:30;11.20;;;5.30;;
12888;SDS011;56848;49.896;11.424;2022-10-26T05:03:00;8.20;;;5.70;;
12888;SDS011;56848;49.896;11.424;2022-10-26T05:05:26;6.27;;;5.03;;
12888;SDS011;56848;49.896;11.424;2022-10-26T05:07:56;10.13;;;5.03;;
12888;SDS011;56848;49.896;11.424;2022-10-26T05:10:22;10.40;;;6.30;;
12888;SDS011;56848;49.896;11.424;2022-10-26T05:12:52;8.43;;;5.47;;
12888;SDS011;56848;49.896;11.424;2022-10-26T05:15:18;14.00;;;5.77;;
12888;SDS011;56848;49.896;11.424;2022-10-26T05:17:44;10.43;;;5.60;;
12888;SDS011;56848;49.896;11.424;2022-10-26T05:20:09;6.17;;;5.40;;
12888;SDS011;56848;49.896;11.424;2022-10-26T05:22:37;11.03;;;5.10;;
12888;SDS011;56848;49.896;11.424;2022-10-26T05:25:04;8.27;;;5.33;;
12888;SDS011;56848;49.896;11.424;2022-10-26T05:27:30;6.73;;;4.77;;
12888;SDS011;56848;49.896;11.424;2022-10-26T05:29:55;9.00;;;5.23;;
12888;SDS011;56848;49.896;11.424;2022-10-26T05:32:21;11.50;;;5.47;;
12888;SDS011;56848;49.896;11.424;2022-10-26T05:34:47;7.10;;;5.50;;
12888;SDS011;56848;49.896;11.424;2022-10-26T05:37:12;8.73;;;5.83;;
12888;SDS011;56848;49.896;11.424;2022-10-26T05:39:38;5.90;;;4.10;;
12888;SDS011;56848;49.896;11.424;2022-10-26T05:42:03;7.47;;;5.30;;
12888;SDS011;56848;49.896;11.424;2022-10-26T05:44:29;8.60;;;4.53;;
12888;SDS011;56848;49.896;11.424;2022-10-26T05:46:54;5.33;;;4.27;;
12888;SDS011;56848;49.896;11.424;2022-10-26T05:49:21;7.00;;;5.13;;
12888;SDS011;56848;49.896;11.424;2022-10-26T05:51:46;12.97;;;4.53;;
12888;SDS011;56848;49.896;11.424;2022-10-26T05:54:12;9.07;;;4.87;;
12888;SDS011;56848;49.896;11.424;2022-10-26T05:56:38;7.30;;;5.40;;
12888;SDS011;56848;49.896;11.424;2022-10-26T05:59:22;4.93;;;4.43;;
12888;SDS011;56848;49.896;11.424;2022-10-26T06:04:31;8.83;;;4.97;;
12888;SDS011;56848;49.896;11.424;2022-10-26T06:07:10;6.63;;;4.50;;
12888;SDS011;56848;49.896;11.424;2022-10-26T06:09:37;11.50;;;5.57;;
12888;SDS011;56848;49.896;11.424;2022-10-26T06:12:04;8.80;;;5.00;;
12888;SDS011;56848;49.896;11.424;2022-10-26T06:14:31;10.53;;;4.30;;
12888;SDS011;56848;49.896;11.424;2022-10-26T06:22:18;8.23;;;5.63;;
12888;SDS011;56848;49.896;11.424;2022-10-26T06:25:14;8.13;;;4.73;;
12888;SDS011;56848;49.896;11.424;2022-10-26T06:27:55;8.90;;;4.90;;
12888;SDS011;56848;49.896;11.424;2022-10-26T06:30:35;9.20;;;4.47;;
12888;SDS011;56848;49.896;11.424;2022-10-26T06:33:00;19.20;;;5.00;;
12888;SDS011;56848;49.896;11.424;2022-10-26T06:35:33;8.10;;;4.60;;
12888;SDS011;56848;49.896;11.424;2022-10-26T06:38:16;15.00;;;5.73;;
12888;SDS011;56848;49.896;11.424;2022-10-26T06:40:44;13.80;;;6.30;;
12888;SDS011;56848;49.896;11.424;2022-10-26T06:43:34;7.30;;;5.43;;
12888;SDS011;56848;49.896;11.424;2022-10-26T06:48:32;10.53;;;4.97;;
12888;SDS011;56848;49.896;11.424;2022-10-26T06:51:09;6.40;;;5.13;;
12888;SDS011;56848;49.896;11.424;2022-10-26T06:56:31;10.13;;;5.40;;
12888;SDS011;56848;49.896;11.424;2022-10-26T06:58:59;6.53;;;4.30;;
12888;SDS011;56848;49.896;11.424;2022-10-26T07:01:32;9.73;;;5.10;;
12888;SDS011;56848;49.896;11.424;2022-10-26T07:03:57;14.90;;;5.60;;
12888;SDS011;56848;49.896;11.424;2022-10-26T07:06:23;8.73;;;5.73;;
12888;SDS011;56848;49.896;11.424;2022-10-26T07:08:49;9.50;;;4.63;;
12888;SDS011;56848;49.896;11.424;2022-10-26T07:11:15;11.27;;;4.87;;
12888;SDS011;56848;49.896;11.424;2022-10-26T07:13:40;13.67;;;5.10;;
12888;SDS011;56848;49.896;11.424;2022-10-26T07:16:06;6.77;;;4.80;;
12888;SDS011;56848;49.896;11.424;2022-10-26T07:18:31;7.43;;;5.10;;
12888;SDS011;56848;49.896;11.424;2022-10-26T07:20:57;6.57;;;5.10;;
12888;SDS011;56848;49.896;11.424;2022-10-26T07:23:23;8.73;;;5.40;;
12888;SDS011;56848;49.896;11.424;2022-10-26T07:25:49;13.43;;;6.57;;
12888;SDS011;56848;49.896;11.424;2022-10-26T07:28:14;8.03;;;5.33;;
12888;SDS011;56848;49.896;11.424;2022-10-26T07:30:40;10.90;;;5.23;;
12888;SDS011;56848;49.896;11.424;2022-10-26T07:33:09;10.13;;;5.70;;
12888;SDS011;56848;49.896;11.424;2022-10-26T07:35:37;10.33;;;6.03;;
12888;SDS011;56848;49.896;11.424;2022-10-26T07:38:03;9.23;;;6.93;;
12888;SDS011;56848;49.896;11.424;2022-10-26T07:40:29;11.43;;;7.07;;
12888;SDS011;56848;49.896;11.424;2022-10-26T07:42:55;9.53;;;6.60;;
12888;SDS011;56848;49.896;11.424;2022-10-26T07:45:22;12.27;;;6.57;;
12888;SDS011;56848;49.896;11.424;2022-10-26T07:47:48;8.60;;;6.40;;
12888;SDS011;56848;49.896;11.424;2022-10-26T07:50:14;11.33;;;6.10;;
12888;SDS011;56848;49.896;11.424;2022-10-26T07:52:39;9.67;;;5.87;;
12888;SDS011;56848;49.896;11.424;2022-10-26T07:55:06;6.50;;;4.87;;
12888;SDS011;56848;49.896;11.424;2022-10-26T07:57:33;16.30;;;5.60;;
12888;SDS011;56848;49.896;11.424;2022-10-26T07:59:58;7.57;;;5.10;;
12888;SDS011;56848;49.896;11.424;2022-10-26T08:02:24;8.83;;;4.87;;
12888;SDS011;56848;49.896;11.424;2022-10-26T08:04:50;7.67;;;4.43;;
12888;SDS011;56848;49.896;11.424;2022-10-26T08:07:15;5.80;;;3.73;;
12888;SDS011;56848;49.896;11.424;2022-10-26T08:09:41;7.10;;;4.27;;
12888;SDS011;56848;49.896;11.424;2022-10-26T08:12:06;3.73;;;3.30;;
12888;SDS011;56848;49.896;11.424;2022-10-26T08:14:32;4.10;;;3.80;;
12888;SDS011;56848;49.896;11.424;2022-10-26T08:16:57;6.80;;;3.93;;
12888;SDS011;56848;49.896;11.424;2022-10-26T08:19:23;5.63;;;3.50;;
12888;SDS011;56848;49.896;11.424;2022-10-26T08:21:48;7.30;;;3.53;;
12888;SDS011;56848;49.896;11.424;2022-10-26T08:24:14;5.40;;;3.77;;
12888;SDS011;56848;49.896;11.424;2022-10-26T08:26:40;7.43;;;3.70;;
12888;SDS011;56848;49.896;11.424;2022-10-26T08:29:06;7.70;;;4.17;;
12888;SDS011;56848;49.896;11.424;2022-10-26T08:31:31;7.77;;;4.10;;
12888;SDS011;56848;49.896;11.424;2022-10-26T08:33:57;5.77;;;3.40;;
12888;SDS011;56848;49.896;11.424;2022-10-26T08:36:24;7.00;;;4.00;;
12888;SDS011;56848;49.896;11.424;2022-10-26T08:38:51;5.87;;;3.73;;
12888;SDS011;56848;49.896;11.424;2022-10-26T08:41:18;6.80;;;3.90;;
12888;SDS011;56848;49.896;11.424;2022-10-26T08:43:52;4.80;;;4.00;;
12888;SDS011;56848;49.896;11.424;2022-10-26T08:46:24;5.23;;;3.63;;
12888;SDS011;56848;49.896;11.424;2022-10-26T08:49:09;5.43;;;3.47;;
12888;SDS011;56848;49.896;11.424;2022-10-26T08:51:44;8.97;;;3.77;;
12888;SDS011;56848;49.896;11.424;2022-10-26T08:54:27;9.00;;;5.50;;
12888;SDS011;56848;49.896;11.424;2022-10-26T08:56:58;5.43;;;3.70;;
12888;SDS011;56848;49.896;11.424;2022-10-26T09:01:55;11.13;;;3.70;;
12888;SDS011;56848;49.896;11.424;2022-10-26T09:04:24;7.43;;;3.50;;
12888;SDS011;56848;49.896;11.424;2022-10-26T09:09:23;5.90;;;2.90;;
12888;SDS011;56848;49.896;11.424;2022-10-26T09:12:14;4.87;;;3.00;;
12888;SDS011;56848;49.896;11.424;2022-10-26T09:14:54;7.03;;;2.73;;
12888;SDS011;56848;49.896;11.424;2022-10-26T09:17:31;8.13;;;3.00;;
12888;SDS011;56848;49.896;11.424;2022-10-26T09:25:57;2.83;;;2.63;;
12888;SDS011;56848;49.896;11.424;2022-10-26T09:28:26;8.03;;;2.50;;
12888;SDS011;56848;49.896;11.424;2022-10-26T09:31:02;6.10;;;2.90;;
12888;SDS011;56848;49.896;11.424;2022-10-26T09:33:29;3.10;;;2.40;;
12888;SDS011;56848;49.896;11.424;2022-10-26T09:36:00;2.17;;;1.93;;
12888;SDS011;56848;49.896;11.424;2022-10-26T09:38:29;7.73;;;2.77;;
12888;SDS011;56848;49.896;11.424;2022-10-26T09:46:21;4.67;;;2.90;;
12888;SDS011;56848;49.896;11.424;2022-10-26T09:49:04;4.87;;;3.03;;
12888;SDS011;56848;49.896;11.424;2022-10-26T09:51:38;4.13;;;2.60;;
12888;SDS011;56848;49.896;11.424;2022-10-26T09:54:13;8.37;;;2.57;;
12888;SDS011;56848;49.896;11.424;2022-10-26T09:56:42;10.47;;;2.73;;
12888;SDS011;56848;49.896;11.424;2022-10-26T09:59:11;5.20;;;2.40;;
12888;SDS011;56848;49.896;11.424;2022-10-26T10:01:39;4.93;;;2.50;;
12888;SDS011;56848;49.896;11.424;2022-10-26T10:06:37;3.63;;;2.53;;
12888;SDS011;56848;49.896;11.424;2022-10-26T10:09:04;5.63;;;2.40;;
12888;SDS011;56848;49.896;11.424;2022-10-26T10:11:43;3.80;;;2.57;;
12888;SDS011;56848;49.896;11.424;2022-10-26T10:14:14;4.53;;;2.30;;
12888;SDS011;56848;49.896;11.424;2022-10-26T10:16:48;3.20;;;2.50;;
12888;SDS011;56848;49.896;11.424;2022-10-26T10:19:21;7.20;;;2.10;;
12888;SDS011;56848;49.896;11.424;2022-10-26T10:21:49;5.80;;;2.20;;
12888;SDS011;56848;49.896;11.424;2022-10-26T10:27:14;5.00;;;2.40;;
12888;SDS011;56848;49.896;11.424;2022-10-26T10:29:43;4.87;;;2.27;;
12888;SDS011;56848;49.896;11.424;2022-10-26T10:32:19;2.23;;;2.03;;
12888;SDS011;56848;49.896;11.424;2022-10-26T10:34:47;3.20;;;2.13;;
12888;SDS011;56848;49.896;11.424;2022-10-26T10:37:30;2.30;;;2.07;;
12888;SDS011;56848;49.896;11.424;2022-10-26T10:40:20;2.60;;;2.40;;
12888;SDS011;56848;49.896;11.424;2022-10-26T10:42:46;3.97;;;2.50;;
12888;SDS011;56848;49.896;11.424;2022-10-26T10:45:18;3.33;;;3.03;;
12888;SDS011;56848;49.896;11.424;2022-10-26T10:48:50;5.67;;;1.93;;
12888;SDS011;56848;49.896;11.424;2022-10-26T10:51:03;2.87;;;2.13;;
12888;SDS011;56848;49.896;11.424;2022-10-26T10:56:52;3.87;;;2.67;;
12888;SDS011;56848;49.896;11.424;2022-10-26T11:07:52;2.37;;;1.87;;
12888;SDS011;56848;49.896;11.424;2022-10-26T11:10:26;3.43;;;2.00;;
12888;SDS011;56848;49.896;11.424;2022-10-26T11:12:58;5.03;;;1.80;;
12888;SDS011;56848;49.896;11.424;2022-10-26T11:15:29;2.90;;;1.97;;
12888;SDS011;56848;49.896;11.424;2022-10-26T11:20:37;8.03;;;2.10;;
12888;SDS011;56848;49.896;11.424;2022-10-26T11:23:08;2.53;;;1.93;;
12888;SDS011;56848;49.896;11.424;2022-10-26T11:25:47;8.13;;;2.33;;
12888;SDS011;56848;49.896;11.424;2022-10-26T11:31:10;5.57;;;2.00;;
12888;SDS011;56848;49.896;11.424;2022-10-26T11:33:44;6.43;;;3.00;;
12888;SDS011;56848;49.896;11.424;2022-10-26T11:36:18;7.17;;;2.60;;
12888;SDS011;56848;49.896;11.424;2022-10-26T11:38:50;6.33;;;3.80;;
12888;SDS011;56848;49.896;11.424;2022-10-26T11:44:04;5.50;;;1.83;;
12888;SDS011;56848;49.896;11.424;2022-10-26T11:47:02;5.17;;;1.93;;
12888;SDS011;56848;49.896;11.424;2022-10-26T11:49:49;6.93;;;2.50;;
12888;SDS011;56848;49.896;11.424;2022-10-26T11:52:27;15.60;;;2.10;;
12888;SDS011;56848;49.896;11.424;2022-10-26T11:55:07;3.93;;;1.73;;
12888;SDS011;56848;49.896;11.424;2022-10-26T11:57:35;1.53;;;1.40;;
12888;SDS011;56848;49.896;11.424;2022-10-26T12:00:13;7.60;;;1.90;;
12888;SDS011;56848;49.896;11.424;2022-10-26T12:02:41;4.83;;;2.17;;
12888;SDS011;56848;49.896;11.424;2022-10-26T12:05:16;5.73;;;2.17;;
12888;SDS011;56848;49.896;11.424;2022-10-26T12:07:46;5.10;;;2.07;;
12888;SDS011;56848;49.896;11.424;2022-10-26T12:10:34;9.07;;;1.70;;
12888;SDS011;56848;49.896;11.424;2022-10-26T12:19:10;2.63;;;1.83;;
12888;SDS011;56848;49.896;11.424;2022-10-26T12:21:50;8.40;;;2.20;;
12888;SDS011;56848;49.896;11.424;2022-10-26T12:26:57;3.63;;;2.00;;
12888;SDS011;56848;49.896;11.424;2022-10-26T12:29:28;4.40;;;1.93;;
12888;SDS011;56848;49.896;11.424;2022-10-26T12:32:00;7.50;;;2.30;;
12888;SDS011;56848;49.896;11.424;2022-10-26T12:39:29;3.80;;;1.80;;
12888;SDS011;56848;49.896;11.424;2022-10-26T12:41:56;4.57;;;1.90;;
12888;SDS011;56848;49.896;11.424;2022-10-26T12:44:33;3.83;;;1.83;;
12888;SDS011;56848;49.896;11.424;2022-10-26T12:47:05;4.20;;;2.10;;
12888;SDS011;56848;49.896;11.424;2022-10-26T13:00:53;3.57;;;1.67;;
12888;SDS011;56848;49.896;11.424;2022-10-26T13:09:28;3.47;;;1.90;;
12888;SDS011;56848;49.896;11.424;2022-10-26T13:11:57;8.47;;;2.70;;
12888;SDS011;56848;49.896;11.424;2022-10-26T13:14:27;5.33;;;2.43;;
12888;SDS011;56848;49.896;11.424;2022-10-26T13:17:00;8.60;;;2.63;;
12888;SDS011;56848;49.896;11.424;2022-10-26T13:19:43;3.60;;;1.83;;
12888;SDS011;56848;49.896;11.424;2022-10-26T13:22:20;9.30;;;2.83;;
12888;SDS011;56848;49.896;11.424;2022-10-26T13:24:53;6.63;;;2.30;;
12888;SDS011;56848;49.896;11.424;2022-10-26T13:32:35;7.30;;;2.40;;
12888;SDS011;56848;49.896;11.424;2022-10-26T13:35:08;9.20;;;2.43;;
12888;SDS011;56848;49.896;11.424;2022-10-26T13:37:38;3.93;;;2.00;;
12888;SDS011;56848;49.896;11.424;2022-10-26T13:40:09;6.20;;;2.60;;
12888;SDS011;56848;49.896;11.424;2022-10-26T13:42:44;5.53;;;2.20;;
12888;SDS011;56848;49.896;11.424;2022-10-26T13:45:31;10.73;;;2.90;;
12888;SDS011;56848;49.896;11.424;2022-10-26T13:48:16;6.00;;;2.20;;
12888;SDS011;56848;49.896;11.424;2022-10-26T13:51:20;9.70;;;2.40;;
12888;SDS011;56848;49.896;11.424;2022-10-26T13:58:59;12.00;;;2.40;;
12888;SDS011;56848;49.896;11.424;2022-10-26T14:01:27;5.83;;;2.60;;
12888;SDS011;56848;49.896;11.424;2022-10-26T14:03:54;10.80;;;2.30;;
12888;SDS011;56848;49.896;11.424;2022-10-26T14:08:45;15.13;;;3.30;;
12888;SDS011;56848;49.896;11.424;2022-10-26T14:11:14;4.40;;;1.90;;
12888;SDS011;56848;49.896;11.424;2022-10-26T14:13:44;7.37;;;2.70;;
12888;SDS011;56848;49.896;11.424;2022-10-26T14:16:12;8.13;;;2.20;;
12888;SDS011;56848;49.896;11.424;2022-10-26T14:18:42;4.30;;;2.20;;
12888;SDS011;56848;49.896;11.424;2022-10-26T14:21:12;4.70;;;2.37;;
12888;SDS011;56848;49.896;11.424;2022-10-26T14:23:47;6.47;;;2.60;;
12888;SDS011;56848;49.896;11.424;2022-10-26T14:28:51;4.13;;;2.40;;
12888;SDS011;56848;49.896;11.424;2022-10-26T14:31:20;5.40;;;2.40;;
12888;SDS011;56848;49.896;11.424;2022-10-26T14:33:57;6.00;;;2.30;;
12888;SDS011;56848;49.896;11.424;2022-10-26T14:36:33;8.20;;;2.73;;
12888;SDS011;56848;49.896;11.424;2022-10-26T14:39:05;6.27;;;2.50;;
12888;SDS011;56848;49.896;11.424;2022-10-26T14:41:40;5.70;;;2.50;;
12888;SDS011;56848;49.896;11.424;2022-10-26T14:44:12;6.73;;;3.17;;
12888;SDS011;56848;49.896;11.424;2022-10-26T14:46:43;12.30;;;3.40;;
12888;SDS011;56848;49.896;11.424;2022-10-26T14:49:15;5.07;;;2.60;;
12888;SDS011;56848;49.896;11.424;2022-10-26T14:51:43;10.30;;;3.17;;
12888;SDS011;56848;49.896;11.424;2022-10-26T14:54:18;10.33;;;2.63;;
12888;SDS011;56848;49.896;11.424;2022-10-26T14:56:45;5.97;;;2.70;;
12888;SDS011;56848;49.896;11.424;2022-10-26T14:59:11;8.47;;;2.20;;
12888;SDS011;56848;49.896;11.424;2022-10-26T15:01:56;6.00;;;2.40;;
12888;SDS011;56848;49.896;11.424;2022-10-26T15:04:41;9.57;;;2.50;;
12888;SDS011;56848;49.896;11.424;2022-10-26T15:07:20;7.67;;;2.83;;
12888;SDS011;56848;49.896;11.424;2022-10-26T15:09:47;7.10;;;2.83;;
12888;SDS011;56848;49.896;11.424;2022-10-26T15:12:35;9.33;;;3.00;;
12888;SDS011;56848;49.896;11.424;2022-10-26T15:17:39;13.50;;;2.67;;
12888;SDS011;56848;49.896;11.424;2022-10-26T15:20:10;7.77;;;2.43;;
12888;SDS011;56848;49.896;11.424;2022-10-26T15:22:47;6.20;;;2.80;;
12888;SDS011;56848;49.896;11.424;2022-10-26T15:25:27;9.60;;;2.77;;
12888;SDS011;56848;49.896;11.424;2022-10-26T15:33:31;8.63;;;3.40;;
12888;SDS011;56848;49.896;11.424;2022-10-26T15:38:32;13.63;;;3.10;;
12888;SDS011;56848;49.896;11.424;2022-10-26T15:40:58;8.43;;;2.67;;
12888;SDS011;56848;49.896;11.424;2022-10-26T15:43:24;11.43;;;3.60;;
12888;SDS011;56848;49.896;11.424;2022-10-26T15:45:49;12.73;;;4.07;;
12888;SDS011;56848;49.896;11.424;2022-10-26T15:48:22;6.23;;;2.73;;
12888;SDS011;56848;49.896;11.424;2022-10-26T15:50:51;3.90;;;2.70;;
12888;SDS011;56848;49.896;11.424;2022-10-26T15:53:18;12.83;;;3.27;;
12888;SDS011;56848;49.896;11.424;2022-10-26T15:55:46;7.20;;;2.80;;
12888;SDS011;56848;49.896;11.424;2022-10-26T15:58:12;7.77;;;3.10;;
12888;SDS011;56848;49.896;11.424;2022-10-26T16:00:38;6.20;;;2.87;;
12888;SDS011;56848;49.896;11.424;2022-10-26T16:03:04;5.47;;;3.13;;
12888;SDS011;56848;49.896;11.424;2022-10-26T16:05:30;7.20;;;3.20;;
12888;SDS011;56848;49.896;11.424;2022-10-26T16:07:55;7.83;;;2.70;;
12888;SDS011;56848;49.896;11.424;2022-10-26T16:10:22;8.53;;;4.03;;
12888;SDS011;56848;49.896;11.424;2022-10-26T16:12:49;10.27;;;3.20;;
12888;SDS011;56848;49.896;11.424;2022-10-26T16:15:17;7.37;;;3.40;;
12888;SDS011;56848;49.896;11.424;2022-10-26T16:17:47;8.33;;;2.70;;
12888;SDS011;56848;49.896;11.424;2022-10-26T16:20:17;6.83;;;3.00;;
12888;SDS011;56848;49.896;11.424;2022-10-26T16:22:46;7.27;;;2.60;;
12888;SDS011;56848;49.896;11.424;2022-10-26T16:25:13;9.53;;;3.70;;
12888;SDS011;56848;49.896;11.424;2022-10-26T16:27:40;10.97;;;3.23;;
12888;SDS011;56848;49.896;11.424;2022-10-26T16:30:06;15.30;;;5.97;;
12888;SDS011;56848;49.896;11.424;2022-10-26T16:32:32;15.10;;;5.47;;
12888;SDS011;56848;49.896;11.424;2022-10-26T16:34:58;18.00;;;5.83;;
12888;SDS011;56848;49.896;11.424;2022-10-26T16:37:23;20.60;;;7.40;;
12888;SDS011;56848;49.896;11.424;2022-10-26T16:39:49;19.10;;;5.47;;
12888;SDS011;56848;49.896;11.424;2022-10-26T16:42:14;14.37;;;7.13;;
12888;SDS011;56848;49.896;11.424;2022-10-26T16:44:40;6.73;;;3.40;;
12888;SDS011;56848;49.896;11.424;2022-10-26T16:47:05;11.73;;;3.30;;
12888;SDS011;56848;49.896;11.424;2022-10-26T16:49:31;15.03;;;3.20;;
12888;SDS011;56848;49.896;11.424;2022-10-26T16:51:56;14.03;;;3.27;;
12888;SDS011;56848;49.896;11.424;2022-10-26T16:54:22;14.90;;;3.67;;
12888;SDS011;56848;49.896;11.424;2022-10-26T16:56:47;6.03;;;3.00;;
12888;SDS011;56848;49.896;11.424;2022-10-26T16:59:13;7.57;;;3.10;;
12888;SDS011;56848;49.896;11.424;2022-10-26T17:01:39;6.53;;;3.43;;
12888;SDS011;56848;49.896;11.424;2022-10-26T17:04:04;5.53;;;3.30;;
12888;SDS011;56848;49.896;11.424;2022-10-26T17:06:30;8.07;;;3.73;;
12888;SDS011;56848;49.896;11.424;2022-10-26T17:08:55;9.23;;;2.87;;
12888;SDS011;56848;49.896;11.424;2022-10-26T17:11:21;8.70;;;3.03;;
12888;SDS011;56848;49.896;11.424;2022-10-26T17:13:47;10.50;;;3.07;;
12888;SDS011;56848;49.896;11.424;2022-10-26T17:16:17;11.50;;;3.30;;
12888;SDS011;56848;49.896;11.424;2022-10-26T17:18:45;5.33;;;3.33;;
12888;SDS011;56848;49.896;11.424;2022-10-26T17:21:12;5.80;;;2.93;;
12888;SDS011;56848;49.896;11.424;2022-10-26T17:23:39;12.90;;;4.10;;
12888;SDS011;56848;49.896;11.424;2022-10-26T17:26:06;5.90;;;3.60;;
12888;SDS011;56848;49.896;11.424;2022-10-26T17:28:33;5.67;;;3.17;;
12888;SDS011;56848;49.896;11.424;2022-10-26T17:31:03;4.20;;;3.00;;
12888;SDS011;56848;49.896;11.424;2022-10-26T17:33:34;9.57;;;3.23;;
12888;SDS011;56848;49.896;11.424;2022-10-26T17:36:02;8.30;;;3.77;;
12888;SDS011;56848;49.896;11.424;2022-10-26T17:38:29;10.07;;;3.93;;
12888;SDS011;56848;49.896;11.424;2022-10-26T17:41:00;6.57;;;3.00;;
12888;SDS011;56848;49.896;11.424;2022-10-26T17:43:28;12.80;;;4.03;;
12888;SDS011;56848;49.896;11.424;2022-10-26T17:45:58;5.47;;;3.67;;
12888;SDS011;56848;49.896;11.424;2022-10-26T17:48:29;9.20;;;4.60;;
12888;SDS011;56848;49.896;11.424;2022-10-26T17:50:59;4.37;;;3.53;;
12888;SDS011;56848;49.896;11.424;2022-10-26T17:53:26;14.00;;;4.37;;
12888;SDS011;56848;49.896;11.424;2022-10-26T17:56:02;12.17;;;3.70;;
12888;SDS011;56848;49.896;11.424;2022-10-26T17:58:29;9.50;;;3.60;;
12888;SDS011;56848;49.896;11.424;2022-10-26T18:00:58;9.80;;;3.63;;
12888;SDS011;56848;49.896;11.424;2022-10-26T18:03:25;11.57;;;3.90;;
12888;SDS011;56848;49.896;11.424;2022-10-26T18:05:51;11.07;;;3.77;;
12888;SDS011;56848;49.896;11.424;2022-10-26T18:08:16;10.10;;;3.43;;
12888;SDS011;56848;49.896;11.424;2022-10-26T18:10:49;10.43;;;3.47;;
12888;SDS011;56848;49.896;11.424;2022-10-26T18:13:16;8.80;;;3.30;;
12888;SDS011;56848;49.896;11.424;2022-10-26T18:15:42;12.23;;;4.17;;
12888;SDS011;56848;49.896;11.424;2022-10-26T18:18:08;7.97;;;3.40;;
12888;SDS011;56848;49.896;11.424;2022-10-26T18:20:35;12.43;;;3.90;;
12888;SDS011;56848;49.896;11.424;2022-10-26T18:23:00;5.80;;;3.30;;
12888;SDS011;56848;49.896;11.424;2022-10-26T18:25:26;9.23;;;3.50;;
12888;SDS011;56848;49.896;11.424;2022-10-26T18:27:52;12.60;;;3.57;;
12888;SDS011;56848;49.896;11.424;2022-10-26T18:30:18;11.87;;;4.03;;
12888;SDS011;56848;49.896;11.424;2022-10-26T18:32:44;5.17;;;3.50;;
12888;SDS011;56848;49.896;11.424;2022-10-26T18:35:12;15.10;;;4.43;;
12888;SDS011;56848;49.896;11.424;2022-10-26T18:37:37;12.63;;;3.90;;
12888;SDS011;56848;49.896;11.424;2022-10-26T18:40:03;17.03;;;4.07;;
12888;SDS011;56848;49.896;11.424;2022-10-26T18:42:29;9.07;;;4.40;;
12888;SDS011;56848;49.896;11.424;2022-10-26T18:44:55;9.80;;;4.03;;
12888;SDS011;56848;49.896;11.424;2022-10-26T18:47:24;9.50;;;4.80;;
12888;SDS011;56848;49.896;11.424;2022-10-26T18:49:52;8.33;;;5.10;;
12888;SDS011;56848;49.896;11.424;2022-10-26T18:52:17;13.70;;;5.37;;
12888;SDS011;56848;49.896;11.424;2022-10-26T18:54:43;16.00;;;5.87;;
12888;SDS011;56848;49.896;11.424;2022-10-26T18:57:08;12.47;;;5.90;;
12888;SDS011;56848;49.896;11.424;2022-10-26T18:59:34;10.83;;;4.60;;
12888;SDS011;56848;49.896;11.424;2022-10-26T19:01:59;11.27;;;3.60;;
12888;SDS011;56848;49.896;11.424;2022-10-26T19:04:25;14.33;;;4.43;;
12888;SDS011;56848;49.896;11.424;2022-10-26T19:06:51;10.27;;;4.10;;
12888;SDS011;56848;49.896;11.424;2022-10-26T19:09:17;10.00;;;4.50;;
12888;SDS011;56848;49.896;11.424;2022-10-26T19:11:42;9.60;;;3.97;;
12888;SDS011;56848;49.896;11.424;2022-10-26T19:14:09;14.73;;;3.90;;
12888;SDS011;56848;49.896;11.424;2022-10-26T19:16:35;11.17;;;4.30;;
12888;SDS011;56848;49.896;11.424;2022-10-26T19:19:01;13.10;;;4.50;;
12888;SDS011;56848;49.896;11.424;2022-10-26T19:21:29;6.87;;;3.83;;
12888;SDS011;56848;49.896;11.424;2022-10-26T19:23:56;8.70;;;3.83;;
12888;SDS011;56848;49.896;11.424;2022-10-26T19:26:25;8.73;;;4.00;;
12888;SDS011;56848;49.896;11.424;2022-10-26T19:28:59;15.97;;;4.00;;
12888;SDS011;56848;49.896;11.424;2022-10-26T19:31:26;11.07;;;5.00;;
12888;SDS011;56848;49.896;11.424;2022-10-26T19:33:56;11.17;;;3.97;;
12888;SDS011;56848;49.896;11.424;2022-10-26T19:36:22;8.27;;;3.80;;
12888;SDS011;56848;49.896;11.424;2022-10-26T19:38:48;7.57;;;3.77;;
12888;SDS011;56848;49.896;11.424;2022-10-26T19:41:14;15.57;;;3.77;;
12888;SDS011;56848;49.896;11.424;2022-10-26T19:43:40;14.30;;;4.27;;
12888;SDS011;56848;49.896;11.424;2022-10-26T19:46:10;10.50;;;3.63;;
12888;SDS011;56848;49.896;11.424;2022-10-26T19:48:38;15.73;;;4.47;;
12888;SDS011;56848;49.896;11.424;2022-10-26T19:51:04;11.30;;;3.83;;
12888;SDS011;56848;49.896;11.424;2022-10-26T19:53:30;11.97;;;3.93;;
12888;SDS011;56848;49.896;11.424;2022-10-26T19:55:57;6.60;;;3.80;;
12888;SDS011;56848;49.896;11.424;2022-10-26T19:58:24;13.63;;;3.67;;
12888;SDS011;56848;49.896;11.424;2022-10-26T20:00:53;15.57;;;4.00;;
12888;SDS011;56848;49.896;11.424;2022-10-26T20:03:23;11.40;;;3.90;;
12888;SDS011;56848;49.896;11.424;2022-10-26T20:05:49;5.43;;;3.30;;
12888;SDS011;56848;49.896;11.424;2022-10-26T20:08:14;7.73;;;3.50;;
12888;SDS011;56848;49.896;11.424;2022-10-26T20:10:41;7.90;;;4.13;;
12888;SDS011;56848;49.896;11.424;2022-10-26T20:13:11;9.70;;;3.73;;
